createdAt,value
2023-01-13T00:00:10.729Z,9.80
2023-01-13T00:03:13.996Z,9.90
2023-01-13T00:06:20.343Z,9.80
2023-01-13T00:09:23.394Z,9.70
2023-01-13T00:12:26.309Z,9.80
2023-01-13T00:15:29.217Z,9.90
2023-01-13T00:18:32.349Z,9.90
2023-01-13T00:21:37.288Z,10.00
2023-01-13T00:24:40.229Z,10.00
2023-01-13T00:27:43.180Z,10.00
2023-01-13T00:30:46.150Z,10.00
2023-01-13T00:33:51.169Z,10.10
2023-01-13T00:36:56.374Z,10.00
2023-01-13T00:40:00.621Z,10.10
2023-01-13T00:43:20.981Z,9.90
2023-01-13T00:46:24.015Z,10.00
2023-01-13T00:49:27.111Z,10.00
2023-01-13T00:52:33.006Z,10.00
2023-01-13T00:55:36.006Z,10.00
2023-01-13T00:58:38.952Z,9.90
2023-01-13T01:01:42.374Z,9.90
2023-01-13T01:04:45.400Z,9.90
2023-01-13T01:07:49.869Z,9.90
2023-01-13T01:11:02.267Z,9.90
2023-01-13T01:14:05.819Z,10.00
2023-01-13T01:17:08.768Z,10.10
2023-01-13T01:20:12.645Z,10.10
2023-01-13T01:23:17.006Z,10.20
2023-01-13T01:26:22.052Z,10.20
2023-01-13T01:29:24.988Z,10.20
2023-01-13T01:32:28.065Z,10.10
2023-01-13T01:35:31.269Z,10.10
2023-01-13T01:38:35.634Z,10.10
2023-01-13T01:41:39.013Z,10.20
2023-01-13T01:45:01.191Z,10.20
2023-01-13T01:48:07.223Z,10.20
2023-01-13T01:51:14.180Z,10.10
2023-01-13T01:54:23.650Z,10.20
2023-01-13T01:57:30.687Z,10.30
2023-01-13T02:00:34.126Z,10.20
2023-01-13T02:03:40.474Z,10.30
2023-01-13T02:06:45.329Z,10.30
2023-01-13T02:09:50.013Z,10.30
2023-01-13T02:12:54.011Z,10.20
2023-01-13T02:16:06.243Z,10.30
2023-01-13T02:19:27.940Z,10.40
2023-01-13T02:22:47.835Z,10.40
2023-01-13T02:26:10.215Z,10.20
2023-01-13T02:29:44.713Z,10.30
2023-01-13T02:32:59.304Z,10.40
2023-01-13T02:36:07.365Z,10.50
2023-01-13T02:39:17.061Z,10.50
2023-01-13T02:42:43.861Z,10.60
2023-01-13T02:45:53.787Z,10.40
2023-01-13T02:49:01.173Z,10.50
2023-01-13T02:52:11.548Z,10.50
2023-01-13T02:55:18.106Z,10.60
2023-01-13T02:58:25.297Z,10.60
2023-01-13T03:01:29.733Z,10.60
2023-01-13T03:04:48.690Z,10.50
2023-01-13T03:08:24.344Z,10.70
2023-01-13T03:11:33.671Z,10.60
2023-01-13T03:14:44.046Z,10.60
2023-01-13T03:17:56.970Z,10.60
2023-01-13T03:21:07.152Z,10.60
2023-01-13T03:24:17.127Z,10.60
2023-01-13T03:27:27.994Z,10.50
2023-01-13T03:30:34.986Z,10.60
2023-01-13T03:33:45.781Z,10.70
2023-01-13T03:36:51.103Z,10.60
2023-01-13T03:39:58.883Z,10.50
2023-01-13T03:43:22.501Z,10.50
2023-01-13T03:46:34.904Z,10.60
2023-01-13T03:49:45.722Z,10.70
2023-01-13T03:52:51.979Z,10.80
2023-01-13T03:56:00.154Z,10.80
2023-01-13T03:59:06.838Z,10.80
2023-01-13T04:02:15.543Z,10.80
2023-01-13T04:05:20.318Z,10.70
2023-01-13T04:08:25.945Z,10.60
2023-01-13T04:11:34.506Z,10.60
2023-01-13T04:14:38.279Z,10.70
2023-01-13T04:17:41.124Z,10.70
2023-01-13T04:20:46.932Z,10.70
2023-01-13T04:23:51.372Z,10.70
2023-01-13T04:26:56.411Z,10.80
2023-01-13T04:29:59.205Z,10.80
2023-01-13T04:33:02.145Z,10.80
2023-01-13T04:36:07.356Z,10.90
2023-01-13T04:39:10.196Z,10.80
2023-01-13T04:42:13.093Z,10.80
2023-01-13T04:45:15.971Z,10.80
2023-01-13T04:48:18.797Z,10.80
2023-01-13T04:51:23.079Z,10.90
2023-01-13T04:54:25.894Z,10.90
2023-01-13T04:57:28.734Z,10.80
2023-01-13T05:00:31.973Z,10.90
2023-01-13T05:03:34.792Z,10.90
2023-01-13T05:06:38.985Z,10.90
2023-01-13T05:09:41.946Z,11.00
2023-01-13T05:13:02.139Z,10.90
2023-01-13T05:16:22.886Z,10.90
2023-01-13T05:19:25.699Z,10.80
2023-01-13T05:22:47.554Z,10.90
2023-01-13T05:25:50.577Z,10.90
2023-01-13T05:28:53.422Z,11.00
2023-01-13T05:31:56.234Z,11.00
2023-01-13T05:34:59.123Z,11.10
2023-01-13T05:38:03.245Z,11.00
2023-01-13T05:41:24.085Z,11.00
2023-01-13T05:44:26.892Z,11.00
2023-01-13T05:47:29.709Z,11.10
2023-01-13T05:50:32.484Z,11.10
2023-01-13T05:53:37.004Z,11.10
2023-01-13T05:56:39.801Z,11.10
2023-01-13T05:59:42.581Z,11.00
2023-01-13T06:02:45.500Z,11.10
2023-01-13T06:05:50.337Z,11.00
2023-01-13T06:08:54.521Z,11.00
2023-01-13T06:11:57.318Z,10.90
2023-01-13T06:15:00.119Z,11.10
2023-01-13T06:18:03.901Z,11.10
2023-01-13T06:21:06.959Z,11.10
2023-01-13T06:24:11.357Z,11.10
2023-01-13T06:27:14.660Z,11.10
2023-01-13T06:30:18.490Z,11.20
2023-01-13T06:33:27.631Z,11.10
2023-01-13T06:36:36.606Z,11.10
2023-01-13T06:39:40.981Z,11.10
2023-01-13T06:43:01.559Z,11.10
2023-01-13T06:46:04.434Z,11.20
2023-01-13T06:49:07.560Z,11.00
2023-01-13T06:52:10.381Z,10.90
2023-01-13T06:55:14.608Z,10.90
2023-01-13T06:58:17.533Z,11.00
2023-01-13T07:01:20.428Z,11.10
2023-01-13T07:04:24.052Z,10.90
2023-01-13T07:07:28.073Z,10.90
2023-01-13T07:10:33.624Z,10.90
2023-01-13T07:13:54.216Z,11.00
2023-01-13T07:16:57.002Z,10.90
2023-01-13T07:20:00.004Z,10.90
2023-01-13T07:23:02.993Z,11.10
2023-01-13T07:26:09.311Z,11.00
2023-01-13T07:29:12.882Z,11.00
2023-01-13T07:32:15.712Z,11.10
2023-01-13T07:35:23.245Z,10.90
2023-01-13T07:38:26.220Z,10.90
2023-01-13T07:41:48.048Z,11.10
2023-01-13T07:44:50.899Z,11.00
2023-01-13T07:47:54.554Z,11.10
2023-01-13T07:50:57.387Z,11.20
2023-01-13T07:54:00.644Z,11.10
2023-01-13T07:57:04.960Z,11.00
2023-01-13T08:00:11.406Z,10.70
2023-01-13T08:03:15.664Z,10.90
2023-01-13T08:06:18.740Z,11.00
2023-01-13T08:09:21.651Z,11.00
2023-01-13T08:12:53.539Z,11.00
2023-01-13T08:16:02.587Z,10.80
2023-01-13T08:19:05.664Z,11.00
2023-01-13T08:22:08.447Z,10.90
2023-01-13T08:25:11.452Z,11.00
2023-01-13T08:28:16.868Z,11.10
2023-01-13T08:31:20.072Z,11.20
2023-01-13T08:34:23.306Z,11.30
2023-01-13T08:37:26.166Z,11.30
2023-01-13T08:40:30.795Z,11.20
2023-01-13T08:43:34.990Z,11.40
2023-01-13T08:46:38.029Z,11.30
2023-01-13T08:49:40.938Z,11.40
2023-01-13T08:52:43.786Z,11.40
2023-01-13T08:55:46.701Z,11.30
2023-01-13T08:58:50.908Z,11.30
2023-01-13T09:01:53.943Z,11.40
2023-01-13T09:04:56.884Z,11.30
2023-01-13T09:07:59.686Z,11.40
2023-01-13T09:11:22.557Z,11.50
2023-01-13T09:14:27.738Z,11.50
2023-01-13T09:17:30.556Z,11.40
2023-01-13T09:20:33.457Z,11.50
2023-01-13T09:23:36.260Z,11.60
2023-01-13T09:26:39.329Z,11.60
2023-01-13T09:29:44.066Z,11.60
2023-01-13T09:32:46.955Z,11.60
2023-01-13T09:35:48.810Z,11.70
2023-01-13T09:38:51.971Z,11.80
2023-01-13T09:42:15.473Z,11.80
2023-01-13T09:45:23.459Z,11.70
2023-01-13T09:48:31.344Z,11.80
2023-01-13T09:51:40.980Z,12.00
2023-01-13T09:54:47.841Z,12.00
2023-01-13T09:57:50.882Z,12.10
2023-01-13T10:01:06.682Z,12.00
2023-01-13T10:04:13.197Z,12.00
2023-01-13T10:07:16.559Z,12.00
2023-01-13T10:10:26.414Z,12.10
2023-01-13T10:13:31.081Z,12.10
2023-01-13T10:16:42.413Z,12.10
2023-01-13T10:19:50.824Z,12.10
2023-01-13T10:23:04.182Z,12.00
2023-01-13T10:26:24.168Z,12.10
2023-01-13T10:29:28.773Z,12.20
2023-01-13T10:32:33.259Z,12.20
2023-01-13T10:35:57.627Z,12.40
2023-01-13T10:39:10.036Z,12.60
2023-01-13T10:42:15.345Z,12.70
2023-01-13T10:45:25.898Z,12.90
2023-01-13T10:48:39.462Z,13.00
2023-01-13T10:51:45.553Z,12.90
2023-01-13T10:54:53.030Z,12.90
2023-01-13T10:57:56.292Z,12.80
2023-01-13T11:01:06.145Z,12.70
2023-01-13T11:04:31.598Z,12.70
2023-01-13T11:07:37.727Z,12.60
2023-01-13T11:10:47.461Z,12.60
2023-01-13T11:14:12.349Z,12.60
2023-01-13T11:17:33.824Z,12.70
2023-01-13T11:20:43.101Z,12.60
2023-01-13T11:23:51.491Z,12.40
2023-01-13T11:27:00.333Z,12.40
2023-01-13T11:30:11.211Z,12.50
2023-01-13T11:33:29.488Z,12.60
2023-01-13T11:36:39.276Z,12.50
2023-01-13T11:39:53.970Z,12.60
2023-01-13T11:43:04.832Z,12.50
2023-01-13T11:46:10.110Z,12.40
2023-01-13T11:49:23.474Z,12.30
2023-01-13T11:52:34.895Z,12.40
2023-01-13T11:55:47.522Z,12.40
2023-01-13T11:59:17.269Z,12.30
2023-01-13T12:02:35.783Z,12.40
2023-01-13T12:05:42.265Z,12.40
2023-01-13T12:09:12.006Z,12.30
2023-01-13T12:12:27.728Z,12.40
2023-01-13T12:15:54.425Z,12.60
2023-01-13T12:19:15.736Z,12.50
2023-01-13T12:22:24.714Z,12.50
2023-01-13T12:25:34.551Z,12.50
2023-01-13T12:28:49.119Z,12.50
2023-01-13T12:31:53.280Z,12.40
2023-01-13T12:35:12.432Z,12.50
2023-01-13T12:38:21.203Z,12.40
2023-01-13T12:41:34.514Z,12.20
2023-01-13T12:44:36.511Z,12.30
2023-01-13T12:47:41.378Z,12.20
2023-01-13T12:50:44.368Z,12.30
2023-01-13T12:53:47.250Z,12.30
2023-01-13T12:56:51.512Z,12.30
2023-01-13T13:00:18.781Z,12.30
2023-01-13T13:03:33.441Z,12.10
2023-01-13T13:06:38.329Z,12.10
2023-01-13T13:09:45.933Z,11.80
2023-01-13T13:13:15.114Z,11.80
2023-01-13T13:16:53.013Z,11.60
2023-01-13T13:19:57.548Z,11.70
2023-01-13T13:23:00.553Z,11.80
2023-01-13T13:26:10.930Z,11.70
2023-01-13T13:29:44.910Z,11.70
2023-01-13T13:33:04.173Z,11.70
2023-01-13T13:36:19.762Z,11.60
2023-01-13T13:39:42.950Z,11.60
2023-01-13T13:43:09.360Z,11.60
2023-01-13T13:46:43.820Z,11.60
2023-01-13T13:49:50.508Z,11.70
2023-01-13T13:53:05.460Z,11.80
2023-01-13T13:56:17.205Z,11.80
2023-01-13T13:59:23.632Z,11.60
2023-01-13T14:02:30.525Z,11.60
2023-01-13T14:05:35.298Z,11.50
2023-01-13T14:08:46.594Z,10.50
2023-01-13T14:12:02.084Z,9.90
2023-01-13T14:15:05.510Z,9.70
2023-01-13T14:18:14.410Z,9.20
2023-01-13T14:21:21.498Z,9.20
2023-01-13T14:24:25.123Z,9.30
2023-01-13T14:27:30.021Z,9.20
2023-01-13T14:30:34.691Z,9.00
2023-01-13T14:33:42.488Z,9.00
2023-01-13T14:36:47.901Z,9.10
2023-01-13T14:39:50.975Z,8.90
2023-01-13T14:42:59.865Z,9.00
2023-01-13T14:46:03.738Z,8.90
2023-01-13T14:49:23.546Z,9.10
2023-01-13T14:52:28.861Z,9.20
2023-01-13T14:55:33.687Z,9.20
2023-01-13T14:58:36.593Z,9.30
2023-01-13T15:01:39.804Z,9.40
2023-01-13T15:04:44.155Z,9.30
2023-01-13T15:07:52.453Z,9.30
2023-01-13T15:11:00.057Z,9.20
2023-01-13T15:14:03.143Z,9.20
2023-01-13T15:17:15.581Z,9.30
2023-01-13T15:20:21.830Z,9.40
2023-01-13T15:23:24.715Z,9.50
2023-01-13T15:26:29.776Z,9.40
2023-01-13T15:29:32.708Z,9.40
2023-01-13T15:32:35.572Z,9.40
2023-01-13T15:35:42.677Z,9.40
2023-01-13T15:38:45.587Z,9.40
2023-01-13T15:42:06.020Z,9.30
2023-01-13T15:45:30.724Z,9.30
2023-01-13T15:48:33.791Z,9.30
2023-01-13T15:51:40.774Z,9.30
2023-01-13T15:54:43.645Z,9.40
2023-01-13T15:57:50.706Z,9.30
2023-01-13T16:00:53.874Z,9.20
2023-01-13T16:03:56.958Z,9.10
2023-01-13T16:07:01.242Z,9.20
2023-01-13T16:10:05.470Z,9.20
2023-01-13T16:13:08.594Z,9.20
2023-01-13T16:16:20.275Z,9.20
2023-01-13T16:19:23.178Z,9.20
2023-01-13T16:22:27.548Z,9.30
2023-01-13T16:25:30.468Z,9.30
2023-01-13T16:28:35.814Z,9.20
2023-01-13T16:31:39.213Z,9.20
2023-01-13T16:34:42.818Z,9.20
2023-01-13T16:37:48.502Z,9.20
2023-01-13T16:40:52.291Z,9.20
2023-01-13T16:43:55.498Z,9.10
2023-01-13T16:46:58.387Z,9.20
2023-01-13T16:50:01.251Z,9.10
2023-01-13T16:53:05.907Z,9.00
2023-01-13T16:56:21.168Z,9.00
2023-01-13T16:59:24.042Z,8.90
2023-01-13T17:02:26.972Z,9.00
2023-01-13T17:05:30.248Z,9.10
2023-01-13T17:08:34.467Z,9.10
2023-01-13T17:11:37.347Z,9.10
2023-01-13T17:14:40.203Z,9.20
2023-01-13T17:17:46.949Z,9.20
2023-01-13T17:20:49.829Z,9.30
2023-01-13T17:23:54.050Z,9.30
2023-01-13T17:26:57.820Z,9.30
2023-01-13T17:30:00.685Z,9.30
2023-01-13T17:33:03.714Z,9.30
2023-01-13T17:36:06.976Z,9.30
2023-01-13T17:39:17.147Z,9.40
2023-01-13T17:42:20.105Z,9.40
2023-01-13T17:45:22.962Z,9.40
2023-01-13T17:48:26.718Z,9.40
2023-01-13T17:51:30.192Z,9.40
2023-01-13T17:54:34.445Z,9.40
2023-01-13T17:57:37.312Z,9.40
2023-01-13T18:00:40.588Z,9.30
2023-01-13T18:03:43.853Z,9.30
2023-01-13T18:06:47.851Z,9.30
2023-01-13T18:09:52.061Z,9.20
2023-01-13T18:12:55.043Z,9.10
2023-01-13T18:16:02.997Z,9.10
2023-01-13T18:19:24.088Z,9.00
2023-01-13T18:22:44.617Z,9.00
2023-01-13T18:26:06.628Z,9.10
2023-01-13T18:29:09.516Z,9.10
2023-01-13T18:32:12.798Z,9.10
2023-01-13T18:35:15.742Z,9.00
2023-01-13T18:38:19.911Z,9.10
2023-01-13T18:41:41.452Z,9.10
2023-01-13T18:44:44.360Z,9.00
2023-01-13T18:47:47.290Z,9.10
2023-01-13T18:50:50.135Z,9.10
2023-01-13T18:53:53.928Z,9.10
2023-01-13T18:56:58.330Z,8.80
2023-01-13T19:00:01.256Z,8.90
2023-01-13T19:06:12.373Z,8.80
2023-01-13T19:09:16.230Z,8.70
2023-01-13T19:12:26.028Z,8.60
2023-01-13T19:15:29.063Z,8.60
2023-01-13T19:18:32.071Z,8.50
2023-01-13T19:21:35.028Z,8.40
2023-01-13T19:24:41.783Z,8.50
2023-01-13T19:27:46.167Z,8.50
2023-01-13T19:30:49.093Z,8.30
2023-01-13T19:33:52.351Z,8.30
2023-01-13T19:36:55.919Z,8.30
2023-01-13T19:39:59.549Z,8.20
2023-01-13T19:43:21.035Z,8.20
2023-01-13T19:46:26.981Z,8.20
2023-01-13T19:49:29.912Z,8.40
2023-01-13T19:52:32.925Z,8.40
2023-01-13T19:55:35.855Z,8.30
2023-01-13T19:58:40.090Z,8.40
2023-01-13T20:01:43.108Z,8.30
2023-01-13T20:04:46.774Z,8.30
2023-01-13T20:07:50.692Z,8.20
2023-01-13T20:11:13.896Z,8.30
2023-01-13T20:14:18.133Z,8.30
2023-01-13T20:17:22.948Z,8.20
2023-01-13T20:20:27.303Z,8.10
2023-01-13T20:23:30.252Z,8.10
2023-01-13T20:26:33.456Z,8.00
2023-01-13T20:29:38.768Z,7.90
2023-01-13T20:32:42.226Z,7.50
2023-01-13T20:35:45.764Z,7.30
2023-01-13T20:38:48.738Z,7.20
2023-01-13T20:42:08.996Z,7.40
2023-01-13T20:45:17.707Z,7.50
2023-01-13T20:48:20.831Z,7.60
2023-01-13T20:51:23.771Z,7.80
2023-01-13T20:54:27.586Z,7.50
2023-01-13T20:57:30.621Z,7.40
2023-01-13T21:00:35.014Z,7.40
2023-01-13T21:03:38.601Z,7.50
2023-01-13T21:06:42.181Z,7.40
2023-01-13T21:09:45.183Z,7.30
2023-01-13T21:13:05.621Z,7.40
2023-01-13T21:16:11.196Z,7.50
2023-01-13T21:19:13.124Z,7.40
2023-01-13T21:22:16.289Z,7.40
2023-01-13T21:25:19.898Z,7.40
2023-01-13T21:28:22.787Z,7.30
2023-01-13T21:31:28.858Z,7.30
2023-01-13T21:34:32.828Z,7.30
2023-01-13T21:37:37.336Z,7.30
2023-01-13T21:40:40.428Z,7.30
2023-01-13T21:44:00.715Z,7.30
2023-01-13T21:47:22.573Z,7.40
2023-01-13T21:50:27.987Z,7.40
2023-01-13T21:53:30.856Z,7.30
2023-01-13T21:56:33.782Z,7.30
2023-01-13T21:59:36.635Z,7.20
2023-01-13T22:02:41.266Z,7.10
2023-01-13T22:05:44.241Z,7.10
2023-01-13T22:08:47.149Z,7.10
2023-01-13T22:11:50.049Z,7.00
2023-01-13T22:14:53.782Z,7.00
2023-01-13T22:17:58.101Z,6.90
2023-01-13T22:21:01.794Z,7.00
2023-01-13T22:24:04.812Z,7.10
2023-01-13T22:27:07.691Z,7.10
2023-01-13T22:30:14.020Z,7.10
2023-01-13T22:33:18.306Z,7.10
2023-01-13T22:36:21.607Z,7.20
2023-01-13T22:39:24.476Z,7.20
2023-01-13T22:42:27.365Z,7.20
2023-01-13T22:45:30.270Z,7.20
2023-01-13T22:48:34.991Z,7.10
2023-01-13T22:51:37.876Z,7.20
2023-01-13T22:54:40.779Z,7.40
2023-01-13T22:57:48.090Z,7.60
2023-01-13T23:00:51.282Z,7.70
2023-01-13T23:03:56.231Z,7.80
2023-01-13T23:06:59.967Z,7.80
2023-01-13T23:10:02.874Z,7.80
2023-01-13T23:13:05.879Z,7.80
2023-01-13T23:16:10.781Z,7.60
2023-01-13T23:19:15.247Z,7.60
2023-01-13T23:22:18.161Z,7.40
2023-01-13T23:25:21.017Z,7.20
2023-01-13T23:28:24.127Z,7.10
2023-01-13T23:31:27.045Z,7.10
2023-01-13T23:34:31.359Z,7.10
2023-01-13T23:37:35.432Z,7.10
2023-01-13T23:40:38.390Z,7.00
2023-01-13T23:43:41.570Z,6.80
2023-01-13T23:46:44.533Z,6.70
2023-01-13T23:49:48.777Z,6.70
2023-01-13T23:52:51.663Z,6.70
2023-01-13T23:55:57.920Z,6.60
2023-01-13T23:59:00.910Z,6.60
